sensor_id;sensor_type;location;lat;lon;timestamp;pressure;altitude;pressure_sealevel;temperature;humidity
22605;BME280;11469;49.024;8.246;2023-01-27T00:00:39;100853.16;;;-0.35;99.19
22605;BME280;11469;49.024;8.246;2023-01-27T00:03:05;100850.66;;;-0.16;98.11
22605;BME280;11469;49.024;8.246;2023-01-27T00:05:30;100848.19;;;-0.23;98.23
22605;BME280;11469;49.024;8.246;2023-01-27T00:07:55;100852.88;;;-0.28;98.04
22605;BME280;11469;49.024;8.246;2023-01-27T00:10:23;100844.91;;;-0.45;98.26
22605;BME280;11469;49.024;8.246;2023-01-27T00:12:49;100849.34;;;-0.49;99.25
22605;BME280;11469;49.024;8.246;2023-01-27T00:15:33;100852.94;;;-0.49;100.00
22605;BME280;11469;49.024;8.246;2023-01-27T00:17:59;100850.44;;;-0.50;100.00
22605;BME280;11469;49.024;8.246;2023-01-27T00:20:25;100853.44;;;-0.31;100.00
22605;BME280;11469;49.024;8.246;2023-01-27T00:23:14;100842.41;;;-0.31;100.00
22605;BME280;11469;49.024;8.246;2023-01-27T00:25:58;100840.75;;;-0.32;100.00
22605;BME280;11469;49.024;8.246;2023-01-27T00:28:26;100840.19;;;-0.19;100.00
22605;BME280;11469;49.024;8.246;2023-01-27T00:30:55;100841.03;;;-0.24;99.55
22605;BME280;11469;49.024;8.246;2023-01-27T00:33:20;100834.16;;;-0.31;99.84
22605;BME280;11469;49.024;8.246;2023-01-27T00:35:49;100836.63;;;-0.35;99.68
22605;BME280;11469;49.024;8.246;2023-01-27T00:38:14;100846.25;;;-0.27;99.46
22605;BME280;11469;49.024;8.246;2023-01-27T00:40:39;100844.31;;;-0.17;99.20
22605;BME280;11469;49.024;8.246;2023-01-27T00:43:25;100849.03;;;-0.32;99.39
22605;BME280;11469;49.024;8.246;2023-01-27T00:45:50;100844.31;;;-0.17;99.17
22605;BME280;11469;49.024;8.246;2023-01-27T00:48:16;100844.31;;;-0.17;99.72
22605;BME280;11469;49.024;8.246;2023-01-27T00:50:42;100839.66;;;-0.26;100.00
22605;BME280;11469;49.024;8.246;2023-01-27T00:53:07;100832.22;;;-0.31;100.00
22605;BME280;11469;49.024;8.246;2023-01-27T00:55:32;100839.38;;;-0.35;100.00
22605;BME280;11469;49.024;8.246;2023-01-27T00:57:58;100834.97;;;-0.21;100.00
22605;BME280;11469;49.024;8.246;2023-01-27T01:00:23;100835.78;;;-0.20;100.00
22605;BME280;11469;49.024;8.246;2023-01-27T01:02:48;100829.47;;;-0.26;100.00
22605;BME280;11469;49.024;8.246;2023-01-27T01:05:14;100828.63;;;-0.21;100.00
22605;BME280;11469;49.024;8.246;2023-01-27T01:07:39;100833.03;;;-0.20;100.00
22605;BME280;11469;49.024;8.246;2023-01-27T01:10:05;100831.91;;;-0.19;100.00
22605;BME280;11469;49.024;8.246;2023-01-27T01:12:30;100835.53;;;-0.29;100.00
22605;BME280;11469;49.024;8.246;2023-01-27T01:14:56;100830.28;;;-0.25;100.00
22605;BME280;11469;49.024;8.246;2023-01-27T01:17:21;100836.91;;;-0.37;100.00
22605;BME280;11469;49.024;8.246;2023-01-27T01:19:47;100844.59;;;-0.13;100.00
22605;BME280;11469;49.024;8.246;2023-01-27T01:22:12;100832.19;;;-0.16;100.00
22605;BME280;11469;49.024;8.246;2023-01-27T01:24:37;100838.81;;;-0.17;100.00
22605;BME280;11469;49.024;8.246;2023-01-27T01:27:03;100834.94;;;-0.16;100.00
22605;BME280;11469;49.024;8.246;2023-01-27T01:29:28;100828.91;;;-0.23;100.00
22605;BME280;11469;49.024;8.246;2023-01-27T01:31:53;100827.81;;;-0.27;100.00
22605;BME280;11469;49.024;8.246;2023-01-27T01:34:19;100826.41;;;-0.24;100.00
22605;BME280;11469;49.024;8.246;2023-01-27T01:36:44;100834.13;;;-0.26;100.00
22605;BME280;11469;49.024;8.246;2023-01-27T01:39:09;100827.25;;;-0.29;100.00
22605;BME280;11469;49.024;8.246;2023-01-27T01:41:35;100828.34;;;-0.30;100.00
22605;BME280;11469;49.024;8.246;2023-01-27T01:44:20;100825.88;;;-0.26;100.00
22605;BME280;11469;49.024;8.246;2023-01-27T01:46:45;100822.03;;;-0.30;100.00
22605;BME280;11469;49.024;8.246;2023-01-27T01:49:11;100814.88;;;-0.31;100.00
22605;BME280;11469;49.024;8.246;2023-01-27T01:51:40;100820.91;;;-0.24;100.00
22605;BME280;11469;49.024;8.246;2023-01-27T01:57:00;100809.63;;;-0.33;100.00
22605;BME280;11469;49.024;8.246;2023-01-27T01:59:32;100815.97;;;-0.27;99.91
22605;BME280;11469;49.024;8.246;2023-01-27T02:02:04;100812.63;;;-0.14;97.76
22605;BME280;11469;49.024;8.246;2023-01-27T02:04:34;100809.03;;;-0.10;95.69
22605;BME280;11469;49.024;8.246;2023-01-27T02:07:19;100805.72;;;-0.12;95.63
22605;BME280;11469;49.024;8.246;2023-01-27T02:09:45;100806.84;;;-0.13;96.51
22605;BME280;11469;49.024;8.246;2023-01-27T02:12:10;100808.78;;;-0.23;97.17
22605;BME280;11469;49.024;8.246;2023-01-27T02:14:35;100819.81;;;-0.28;98.37
22605;BME280;11469;49.024;8.246;2023-01-27T02:17:02;100806.84;;;-0.13;99.60
22605;BME280;11469;49.024;8.246;2023-01-27T02:19:45;100807.06;;;-0.04;100.00
22605;BME280;11469;49.024;8.246;2023-01-27T02:22:18;100811.81;;;-0.20;100.00
22605;BME280;11469;49.024;8.246;2023-01-27T02:24:51;100814.56;;;-0.20;100.00
22605;BME280;11469;49.024;8.246;2023-01-27T02:27:18;100810.94;;;-0.05;100.00
22605;BME280;11469;49.024;8.246;2023-01-27T02:29:43;100807.34;;;-0.01;100.00
22605;BME280;11469;49.024;8.246;2023-01-27T02:32:24;100801.88;;;-0.11;100.00
22605;BME280;11469;49.024;8.246;2023-01-27T02:34:50;100804.63;;;-0.11;100.00
22605;BME280;11469;49.024;8.246;2023-01-27T02:37:16;100796.66;;;-0.17;100.00
22605;BME280;11469;49.024;8.246;2023-01-27T02:39:44;100801.28;;;-0.03;100.00
22605;BME280;11469;49.024;8.246;2023-01-27T02:42:13;100801.59;;;-0.09;100.00
22605;BME280;11469;49.024;8.246;2023-01-27T02:44:39;100804.63;;;-0.11;100.00
22605;BME280;11469;49.024;8.246;2023-01-27T02:47:04;100811.53;;;-0.18;100.00
22605;BME280;11469;49.024;8.246;2023-01-27T02:49:30;100799.41;;;-0.22;100.00
22605;BME280;11469;49.024;8.246;2023-01-27T02:51:55;100804.59;;;-0.01;100.00
22605;BME280;11469;49.024;8.246;2023-01-27T02:54:23;100809.59;;;-0.13;100.00
22605;BME280;11469;49.024;8.246;2023-01-27T02:56:48;100800.78;;;-0.15;100.00
22605;BME280;11469;49.024;8.246;2023-01-27T02:59:14;100800.50;;;-0.18;100.00
22605;BME280;11469;49.024;8.246;2023-01-27T03:01:39;100807.38;;;-0.06;100.00
22605;BME280;11469;49.024;8.246;2023-01-27T03:04:04;100802.72;;;-0.15;100.00
22605;BME280;11469;49.024;8.246;2023-01-27T03:06:30;100803.22;;;-0.03;100.00
22605;BME280;11469;49.024;8.246;2023-01-27T03:08:55;100802.44;;;-0.14;100.00
22605;BME280;11469;49.024;8.246;2023-01-27T03:11:21;100806.44;;;0.14;100.00
22605;BME280;11469;49.024;8.246;2023-01-27T03:14:06;100809.72;;;0.16;100.00
22605;BME280;11469;49.024;8.246;2023-01-27T03:16:32;100810.56;;;0.12;100.00
22605;BME280;11469;49.024;8.246;2023-01-27T03:19:15;100808.16;;;0.00;100.00
22605;BME280;11469;49.024;8.246;2023-01-27T03:21:41;100806.47;;;0.04;100.00
22605;BME280;11469;49.024;8.246;2023-01-27T03:24:06;100817.75;;;0.13;100.00
22605;BME280;11469;49.024;8.246;2023-01-27T03:26:32;100801.78;;;0.05;100.00
22605;BME280;11469;49.024;8.246;2023-01-27T03:28:57;100804.25;;;0.11;100.00
22605;BME280;11469;49.024;8.246;2023-01-27T03:31:45;100797.91;;;0.06;99.21
22605;BME280;11469;49.024;8.246;2023-01-27T03:34:13;100805.09;;;0.02;99.37
22605;BME280;11469;49.024;8.246;2023-01-27T03:36:39;100809.00;;;-0.05;100.00
22605;BME280;11469;49.024;8.246;2023-01-27T03:39:23;100805.69;;;-0.02;100.00
22605;BME280;11469;49.024;8.246;2023-01-27T03:42:07;100805.41;;;0.00;100.00
22605;BME280;11469;49.024;8.246;2023-01-27T03:44:51;100811.97;;;0.04;100.00
22605;BME280;11469;49.024;8.246;2023-01-27T03:47:34;100806.44;;;0.09;100.00
22605;BME280;11469;49.024;8.246;2023-01-27T03:50:00;100811.66;;;0.16;97.98
22605;BME280;11469;49.024;8.246;2023-01-27T03:52:25;100815.78;;;0.18;97.55
22605;BME280;11469;49.024;8.246;2023-01-27T03:54:50;100825.44;;;0.16;98.04
22605;BME280;11469;49.024;8.246;2023-01-27T03:57:16;100817.78;;;0.03;98.78
22605;BME280;11469;49.024;8.246;2023-01-27T03:59:42;100822.75;;;0.00;99.36
22605;BME280;11469;49.024;8.246;2023-01-27T04:02:07;100822.75;;;0.00;99.78
22605;BME280;11469;49.024;8.246;2023-01-27T04:04:51;100823.00;;;0.04;99.20
22605;BME280;11469;49.024;8.246;2023-01-27T04:07:35;100826.91;;;-0.02;99.55
22605;BME280;11469;49.024;8.246;2023-01-27T04:10:01;100825.81;;;-0.01;100.00
22605;BME280;11469;49.024;8.246;2023-01-27T04:12:27;100836.88;;;-0.11;100.00
22605;BME280;11469;49.024;8.246;2023-01-27T04:14:52;100836.03;;;-0.07;100.00
22605;BME280;11469;49.024;8.246;2023-01-27T04:17:18;100832.72;;;-0.04;100.00
22605;BME280;11469;49.024;8.246;2023-01-27T04:19:44;100834.63;;;-0.04;100.00
22605;BME280;11469;49.024;8.246;2023-01-27T04:22:11;100828.31;;;-0.05;100.00
22605;BME280;11469;49.024;8.246;2023-01-27T04:24:37;100843.91;;;0.15;100.00
22605;BME280;11469;49.024;8.246;2023-01-27T04:27:07;100839.50;;;0.19;100.00
22605;BME280;11469;49.024;8.246;2023-01-27T04:29:36;100835.91;;;0.19;100.00
22605;BME280;11469;49.024;8.246;2023-01-27T04:32:03;100838.13;;;0.12;100.00
22605;BME280;11469;49.024;8.246;2023-01-27T04:34:30;100838.72;;;0.04;100.00
22605;BME280;11469;49.024;8.246;2023-01-27T04:36:56;100841.47;;;0.04;100.00
22605;BME280;11469;49.024;8.246;2023-01-27T04:39:21;100838.47;;;0.00;100.00
22605;BME280;11469;49.024;8.246;2023-01-27T04:41:47;100843.13;;;0.05;100.00
22605;BME280;11469;49.024;8.246;2023-01-27T04:44:14;100836.53;;;0.00;100.00
22605;BME280;11469;49.024;8.246;2023-01-27T04:46:39;100835.41;;;0.07;100.00
22605;BME280;11469;49.024;8.246;2023-01-27T04:49:05;100842.81;;;0.16;100.00
22605;BME280;11469;49.024;8.246;2023-01-27T04:51:31;100842.81;;;0.16;100.00
22605;BME280;11469;49.024;8.246;2023-01-27T04:53:57;100832.66;;;0.07;100.00
22605;BME280;11469;49.024;8.246;2023-01-27T04:56:28;100843.66;;;0.07;100.00
22605;BME280;11469;49.024;8.246;2023-01-27T04:58:57;100838.69;;;0.09;100.00
22605;BME280;11469;49.024;8.246;2023-01-27T05:01:22;100843.66;;;0.07;100.00
22605;BME280;11469;49.024;8.246;2023-01-27T05:03:48;100842.03;;;0.06;100.00
22605;BME280;11469;49.024;8.246;2023-01-27T05:06:13;100841.75;;;0.07;100.00
22605;BME280;11469;49.024;8.246;2023-01-27T05:08:39;100840.88;;;0.17;100.00
22605;BME280;11469;49.024;8.246;2023-01-27T05:11:05;100843.13;;;0.05;100.00
22605;BME280;11469;49.024;8.246;2023-01-27T05:13:31;100848.09;;;0.03;100.00
22605;BME280;11469;49.024;8.246;2023-01-27T05:16:22;100848.88;;;0.13;100.00
22605;BME280;11469;49.024;8.246;2023-01-27T05:18:50;100851.63;;;0.18;100.00
22605;BME280;11469;49.024;8.246;2023-01-27T05:21:21;100857.47;;;0.02;100.00
22605;BME280;11469;49.024;8.246;2023-01-27T05:23:48;100854.41;;;0.08;100.00
22605;BME280;11469;49.024;8.246;2023-01-27T05:26:16;100856.06;;;0.09;100.00
22605;BME280;11469;49.024;8.246;2023-01-27T05:28:44;100849.44;;;0.15;100.00
22605;BME280;11469;49.024;8.246;2023-01-27T05:31:18;100850.53;;;0.14;100.00
22605;BME280;11469;49.024;8.246;2023-01-27T05:33:45;100857.78;;;0.00;100.00
22605;BME280;11469;49.024;8.246;2023-01-27T05:36:12;100864.31;;;0.14;100.00
22605;BME280;11469;49.024;8.246;2023-01-27T05:38:38;100857.16;;;0.13;100.00
22605;BME280;11469;49.024;8.246;2023-01-27T05:41:06;100858.88;;;-0.01;100.00
22605;BME280;11469;49.024;8.246;2023-01-27T05:43:34;100853.28;;;0.14;100.00
22605;BME280;11469;49.024;8.246;2023-01-27T05:48:33;100866.81;;;0.11;100.00
22605;BME280;11469;49.024;8.246;2023-01-27T05:50:58;100863.25;;;0.05;100.00
22605;BME280;11469;49.024;8.246;2023-01-27T05:53:24;100862.69;;;0.08;100.00
22605;BME280;11469;49.024;8.246;2023-01-27T05:55:50;100863.28;;;0.00;100.00
22605;BME280;11469;49.024;8.246;2023-01-27T05:58:16;100857.72;;;0.05;100.00
22605;BME280;11469;49.024;8.246;2023-01-27T06:00:42;100863.78;;;0.07;100.00
22605;BME280;11469;49.024;8.246;2023-01-27T06:03:08;100862.13;;;0.06;100.00
22605;BME280;11469;49.024;8.246;2023-01-27T06:05:33;100871.78;;;0.09;100.00
22605;BME280;11469;49.024;8.246;2023-01-27T06:07:59;100868.75;;;0.05;100.00
22605;BME280;11469;49.024;8.246;2023-01-27T06:10:24;100879.00;;;-0.01;100.00
22605;BME280;11469;49.024;8.246;2023-01-27T06:12:49;100874.81;;;0.02;100.00
22605;BME280;11469;49.024;8.246;2023-01-27T06:15:15;100871.50;;;0.10;100.00
22605;BME280;11469;49.024;8.246;2023-01-27T06:17:40;100869.06;;;-0.02;100.00
22605;BME280;11469;49.024;8.246;2023-01-27T06:20:06;100878.97;;;0.05;100.00
22605;BME280;11469;49.024;8.246;2023-01-27T06:22:32;100887.47;;;0.13;100.00
22605;BME280;11469;49.024;8.246;2023-01-27T06:24:57;100870.91;;;0.18;100.00
22605;BME280;11469;49.024;8.246;2023-01-27T06:27:22;100880.28;;;0.17;100.00
22605;BME280;11469;49.024;8.246;2023-01-27T06:29:48;100882.78;;;0.14;100.00
22605;BME280;11469;49.024;8.246;2023-01-27T06:32:13;100890.22;;;0.13;100.00
22605;BME280;11469;49.024;8.246;2023-01-27T06:34:38;100887.22;;;0.10;100.00
22605;BME280;11469;49.024;8.246;2023-01-27T06:37:04;100883.91;;;0.08;100.00
22605;BME280;11469;49.024;8.246;2023-01-27T06:39:29;100891.91;;;0.09;100.00
22605;BME280;11469;49.024;8.246;2023-01-27T06:41:54;100888.31;;;0.04;100.00
22605;BME280;11469;49.024;8.246;2023-01-27T06:44:20;100896.84;;;0.12;100.00
22605;BME280;11469;49.024;8.246;2023-01-27T06:46:45;100897.69;;;0.08;100.00
22605;BME280;11469;49.024;8.246;2023-01-27T06:49:10;100902.09;;;0.09;100.00
22605;BME280;11469;49.024;8.246;2023-01-27T06:51:36;100897.16;;;0.06;100.00
22605;BME280;11469;49.024;8.246;2023-01-27T06:54:01;100904.84;;;0.09;100.00
22605;BME280;11469;49.024;8.246;2023-01-27T06:56:27;100904.84;;;0.14;100.00
22605;BME280;11469;49.024;8.246;2023-01-27T06:58:52;100905.94;;;0.13;100.00
22605;BME280;11469;49.024;8.246;2023-01-27T07:01:17;100905.69;;;0.09;100.00
22605;BME280;11469;49.024;8.246;2023-01-27T07:03:43;100904.03;;;0.08;100.00
22605;BME280;11469;49.024;8.246;2023-01-27T07:06:08;100907.88;;;0.07;100.00
22605;BME280;11469;49.024;8.246;2023-01-27T07:08:35;100907.63;;;0.04;100.00
22605;BME280;11469;49.024;8.246;2023-01-27T07:11:04;100910.09;;;0.05;100.00
22605;BME280;11469;49.024;8.246;2023-01-27T07:13:29;100907.34;;;0.05;100.00
22605;BME280;11469;49.024;8.246;2023-01-27T07:15:55;100913.13;;;0.14;100.00
22605;BME280;11469;49.024;8.246;2023-01-27T07:18:21;100917.78;;;0.13;100.00
22605;BME280;11469;49.024;8.246;2023-01-27T07:20:47;100916.69;;;0.14;100.00
22605;BME280;11469;49.024;8.246;2023-01-27T07:23:12;100924.69;;;0.21;100.00
22605;BME280;11469;49.024;8.246;2023-01-27T07:25:38;100927.44;;;0.21;100.00
22605;BME280;11469;49.024;8.246;2023-01-27T07:28:04;100934.59;;;0.22;100.00
22605;BME280;11469;49.024;8.246;2023-01-27T07:30:31;100937.34;;;0.22;100.00
22605;BME280;11469;49.024;8.246;2023-01-27T07:33:05;100930.72;;;0.23;100.00
22605;BME280;11469;49.024;8.246;2023-01-27T07:35:31;100948.09;;;0.23;100.00
22605;BME280;11469;49.024;8.246;2023-01-27T07:37:57;100945.34;;;0.23;100.00
22605;BME280;11469;49.024;8.246;2023-01-27T07:40:22;100952.22;;;0.26;100.00
22605;BME280;11469;49.024;8.246;2023-01-27T07:42:48;100950.88;;;0.18;100.00
22605;BME280;11469;49.024;8.246;2023-01-27T07:45:13;100956.09;;;0.20;100.00
22605;BME280;11469;49.024;8.246;2023-01-27T07:47:38;100946.47;;;0.17;100.00
22605;BME280;11469;49.024;8.246;2023-01-27T07:50:04;100950.31;;;0.21;100.00
22605;BME280;11469;49.024;8.246;2023-01-27T07:52:30;100956.66;;;0.22;100.00
22605;BME280;11469;49.024;8.246;2023-01-27T07:54:55;100964.66;;;0.23;100.00
22605;BME280;11469;49.024;8.246;2023-01-27T07:57:21;100963.53;;;0.35;100.00
22605;BME280;11469;49.024;8.246;2023-01-27T07:59:46;100962.97;;;0.32;100.00
22605;BME280;11469;49.024;8.246;2023-01-27T08:02:12;100969.88;;;0.25;100.00
22605;BME280;11469;49.024;8.246;2023-01-27T08:04:37;100983.09;;;0.28;100.00
22605;BME280;11469;49.024;8.246;2023-01-27T08:07:04;100973.47;;;0.25;100.00
22605;BME280;11469;49.024;8.246;2023-01-27T08:09:30;100974.84;;;0.23;100.00
22605;BME280;11469;49.024;8.246;2023-01-27T08:11:55;100971.25;;;0.27;100.00
22605;BME280;11469;49.024;8.246;2023-01-27T08:14:20;100979.25;;;0.29;100.00
22605;BME280;11469;49.024;8.246;2023-01-27T08:16:46;100985.59;;;0.29;99.97
22605;BME280;11469;49.024;8.246;2023-01-27T08:19:11;100984.22;;;0.27;98.79
22605;BME280;11469;49.024;8.246;2023-01-27T08:21:37;100978.16;;;0.30;98.19
22605;BME280;11469;49.024;8.246;2023-01-27T08:24:02;100980.88;;;0.35;98.45
22605;BME280;11469;49.024;8.246;2023-01-27T08:26:27;100977.03;;;0.36;98.79
22605;BME280;11469;49.024;8.246;2023-01-27T08:28:53;100982.53;;;0.46;98.19
22605;BME280;11469;49.024;8.246;2023-01-27T08:31:18;100979.16;;;0.49;98.04
22605;BME280;11469;49.024;8.246;2023-01-27T08:33:49;100979.16;;;0.54;96.93
22605;BME280;11469;49.024;8.246;2023-01-27T08:36:17;100982.81;;;0.45;96.89
22605;BME280;11469;49.024;8.246;2023-01-27T08:38:46;100980.88;;;0.45;97.06
22605;BME280;11469;49.024;8.246;2023-01-27T08:41:16;100980.00;;;0.50;97.53
22605;BME280;11469;49.024;8.246;2023-01-27T08:43:41;100989.41;;;0.44;97.27
22605;BME280;11469;49.024;8.246;2023-01-27T08:46:07;100994.94;;;0.44;97.37
22605;BME280;11469;49.024;8.246;2023-01-27T08:48:33;100988.03;;;0.46;97.56
22605;BME280;11469;49.024;8.246;2023-01-27T08:50:59;100990.53;;;0.43;97.51
22605;BME280;11469;49.024;8.246;2023-01-27T08:53:25;100989.38;;;0.49;97.55
22605;BME280;11469;49.024;8.246;2023-01-27T08:55:51;100981.91;;;0.54;97.37
22605;BME280;11469;49.024;8.246;2023-01-27T08:58:20;100989.94;;;0.51;95.89
22605;BME280;11469;49.024;8.246;2023-01-27T09:00:46;100980.00;;;0.50;95.88
22605;BME280;11469;49.024;8.246;2023-01-27T09:03:12;100979.41;;;0.58;95.71
22605;BME280;11469;49.024;8.246;2023-01-27T09:05:39;100981.63;;;0.61;95.88
22605;BME280;11469;49.024;8.246;2023-01-27T09:08:05;100987.66;;;0.68;95.25
22605;BME280;11469;49.024;8.246;2023-01-27T09:10:30;100990.16;;;0.70;94.58
22605;BME280;11469;49.024;8.246;2023-01-27T09:12:56;100993.44;;;0.72;94.58
22605;BME280;11469;49.024;8.246;2023-01-27T09:15:21;100990.16;;;0.64;94.23
22605;BME280;11469;49.024;8.246;2023-01-27T09:17:47;100994.31;;;0.62;93.41
22605;BME280;11469;49.024;8.246;2023-01-27T09:20:13;100994.84;;;0.64;92.91
22605;BME280;11469;49.024;8.246;2023-01-27T09:22:39;100995.97;;;0.58;93.71
22605;BME280;11469;49.024;8.246;2023-01-27T09:25:07;101002.59;;;0.62;93.69
22605;BME280;11469;49.024;8.246;2023-01-27T09:27:32;101000.63;;;0.68;93.28
22605;BME280;11469;49.024;8.246;2023-01-27T09:29:58;101011.38;;;0.69;93.33
22605;BME280;11469;49.024;8.246;2023-01-27T09:32:23;101010.31;;;0.65;93.59
22605;BME280;11469;49.024;8.246;2023-01-27T09:34:48;101009.75;;;0.68;93.88
22605;BME280;11469;49.024;8.246;2023-01-27T09:37:14;101008.63;;;0.74;93.47
22605;BME280;11469;49.024;8.246;2023-01-27T09:39:45;101020.19;;;0.76;93.62
22605;BME280;11469;49.024;8.246;2023-01-27T10:06:18;101017.41;;;0.86;91.10
22605;BME280;11469;49.024;8.246;2023-01-27T10:11:52;101021.72;;;1.08;90.49
22605;BME280;11469;49.024;8.246;2023-01-27T10:17:50;101016.44;;;1.11;88.62
22605;BME280;11469;49.024;8.246;2023-01-27T10:28:14;101006.38;;;1.36;87.45
22605;BME280;11469;49.024;8.246;2023-01-27T10:30:48;101011.53;;;1.47;87.10
22605;BME280;11469;49.024;8.246;2023-01-27T10:33:20;101005.28;;;1.31;87.36
22605;BME280;11469;49.024;8.246;2023-01-27T10:36:08;101011.44;;;1.18;88.04
22605;BME280;11469;49.024;8.246;2023-01-27T10:38:43;101012.25;;;1.24;87.68
22605;BME280;11469;49.024;8.246;2023-01-27T10:41:28;101010.06;;;1.21;87.39
22605;BME280;11469;49.024;8.246;2023-01-27T10:44:09;101003.69;;;1.25;87.38
22605;BME280;11469;49.024;8.246;2023-01-27T10:49:31;100998.22;;;1.10;87.76
22605;BME280;11469;49.024;8.246;2023-01-27T10:52:10;100994.63;;;1.15;88.77
22605;BME280;11469;49.024;8.246;2023-01-27T10:54:45;100995.09;;;1.27;87.84
22605;BME280;11469;49.024;8.246;2023-01-27T10:57:26;100997.38;;;1.15;87.24
22605;BME280;11469;49.024;8.246;2023-01-27T11:00:06;101003.69;;;1.20;88.12
22605;BME280;11469;49.024;8.246;2023-01-27T11:02:43;100997.03;;;1.26;87.32
22605;BME280;11469;49.024;8.246;2023-01-27T11:05:17;100990.09;;;1.34;86.33
22605;BME280;11469;49.024;8.246;2023-01-27T11:07:50;100987.69;;;1.22;85.73
22605;BME280;11469;49.024;8.246;2023-01-27T11:10:18;100987.16;;;1.15;86.44
22605;BME280;11469;49.024;8.246;2023-01-27T11:12:47;100982.97;;;1.23;86.26
22605;BME280;11469;49.024;8.246;2023-01-27T11:15:19;100979.66;;;1.26;87.00
22605;BME280;11469;49.024;8.246;2023-01-27T11:17:56;100966.09;;;1.29;86.17
22605;BME280;11469;49.024;8.246;2023-01-27T11:20:30;100974.88;;;1.37;86.16
22605;BME280;11469;49.024;8.246;2023-01-27T11:25:54;100968.91;;;1.19;85.28
22605;BME280;11469;49.024;8.246;2023-01-27T11:33:56;100971.78;;;1.43;85.25
22605;BME280;11469;49.024;8.246;2023-01-27T11:36:25;100971.56;;;1.40;85.64
22605;BME280;11469;49.024;8.246;2023-01-27T11:38:52;100977.84;;;1.45;86.82
22605;BME280;11469;49.024;8.246;2023-01-27T11:41:18;100979.84;;;1.40;84.83
22605;BME280;11469;49.024;8.246;2023-01-27T11:43:44;100978.25;;;1.28;85.31
22605;BME280;11469;49.024;8.246;2023-01-27T11:46:17;100973.28;;;1.25;86.46
22605;BME280;11469;49.024;8.246;2023-01-27T11:48:54;100973.41;;;1.44;85.81
22605;BME280;11469;49.024;8.246;2023-01-27T11:51:24;100973.13;;;1.46;85.98
22605;BME280;11469;49.024;8.246;2023-01-27T11:54:05;100962.00;;;1.56;86.28
22605;BME280;11469;49.024;8.246;2023-01-27T11:56:35;100972.78;;;1.57;86.01
22605;BME280;11469;49.024;8.246;2023-01-27T11:59:05;100963.88;;;1.65;85.46
22605;BME280;11469;49.024;8.246;2023-01-27T12:01:55;100965.50;;;1.72;85.75
22605;BME280;11469;49.024;8.246;2023-01-27T12:04:32;100959.34;;;1.80;84.64
22605;BME280;11469;49.024;8.246;2023-01-27T12:07:17;100962.47;;;1.68;84.35
22605;BME280;11469;49.024;8.246;2023-01-27T12:09:44;100961.56;;;1.78;84.38
22605;BME280;11469;49.024;8.246;2023-01-27T12:12:19;100956.63;;;1.75;84.46
22605;BME280;11469;49.024;8.246;2023-01-27T12:14:59;100954.09;;;1.78;84.57
22605;BME280;11469;49.024;8.246;2023-01-27T12:17:26;100943.75;;;1.60;84.73
22605;BME280;11469;49.024;8.246;2023-01-27T12:19:55;100950.88;;;1.66;85.13
22605;BME280;11469;49.024;8.246;2023-01-27T12:22:32;100952.03;;;1.60;84.12
22605;BME280;11469;49.024;8.246;2023-01-27T12:25:01;100953.16;;;1.59;84.52
22605;BME280;11469;49.024;8.246;2023-01-27T12:27:30;100944.53;;;1.65;84.50
22605;BME280;11469;49.024;8.246;2023-01-27T12:30:06;100951.72;;;1.66;83.87
22605;BME280;11469;49.024;8.246;2023-01-27T12:32:39;100955.63;;;1.60;83.57
22605;BME280;11469;49.024;8.246;2023-01-27T12:37:42;100951.28;;;1.49;83.45
22605;BME280;11469;49.024;8.246;2023-01-27T12:40:17;100950.63;;;1.62;84.08
22605;BME280;11469;49.024;8.246;2023-01-27T12:42:48;100945.16;;;1.57;82.59
22605;BME280;11469;49.024;8.246;2023-01-27T12:45:24;100956.50;;;1.56;83.87
22605;BME280;11469;49.024;8.246;2023-01-27T12:47:55;100953.91;;;1.70;83.44
22605;BME280;11469;49.024;8.246;2023-01-27T12:50:27;100957.00;;;1.63;83.26
22605;BME280;11469;49.024;8.246;2023-01-27T12:53:15;100963.34;;;1.63;83.23
22605;BME280;11469;49.024;8.246;2023-01-27T12:55:51;100952.22;;;1.74;82.98
22605;BME280;11469;49.024;8.246;2023-01-27T13:03:43;100954.69;;;1.75;82.26
22605;BME280;11469;49.024;8.246;2023-01-27T13:06:14;100958.56;;;1.74;82.53
22605;BME280;11469;49.024;8.246;2023-01-27T13:08:40;100957.19;;;1.72;81.70
22605;BME280;11469;49.024;8.246;2023-01-27T13:11:06;100946.16;;;1.72;82.25
22605;BME280;11469;49.024;8.246;2023-01-27T13:13:32;100957.13;;;1.82;82.11
22605;BME280;11469;49.024;8.246;2023-01-27T13:16:07;100957.94;;;1.82;81.26
22605;BME280;11469;49.024;8.246;2023-01-27T13:18:39;100956.59;;;1.80;81.65
22605;BME280;11469;49.024;8.246;2023-01-27T13:21:17;100967.53;;;1.90;81.49
22605;BME280;11469;49.024;8.246;2023-01-27T13:23:45;100963.13;;;1.89;81.19
22605;BME280;11469;49.024;8.246;2023-01-27T13:26:16;100969.47;;;1.89;81.62
22605;BME280;11469;49.024;8.246;2023-01-27T13:31:57;100966.41;;;1.91;81.66
22605;BME280;11469;49.024;8.246;2023-01-27T14:01:23;100967.19;;;1.96;82.42
22605;BME280;11469;49.024;8.246;2023-01-27T14:12:17;100965.19;;;2.02;81.93
22605;BME280;11469;49.024;8.246;2023-01-27T14:17:59;100967.44;;;2.00;82.18
22605;BME280;11469;49.024;8.246;2023-01-27T14:30:56;100975.19;;;1.98;81.49
22605;BME280;11469;49.024;8.246;2023-01-27T14:33:41;100973.25;;;1.98;82.04
22605;BME280;11469;49.024;8.246;2023-01-27T14:45:00;100980.34;;;2.10;82.14
22605;BME280;11469;49.024;8.246;2023-01-27T14:47:39;100989.41;;;2.15;82.34
22605;BME280;11469;49.024;8.246;2023-01-27T15:15:36;101003.63;;;2.32;81.94
22605;BME280;11469;49.024;8.246;2023-01-27T15:18:27;100994.59;;;2.22;82.66
22605;BME280;11469;49.024;8.246;2023-01-27T15:23:58;101002.94;;;2.17;81.83
22605;BME280;11469;49.024;8.246;2023-01-27T15:26:29;101001.78;;;2.23;82.15
22605;BME280;11469;49.024;8.246;2023-01-27T15:28:57;101003.41;;;2.29;81.85
22605;BME280;11469;49.024;8.246;2023-01-27T15:31:28;100997.00;;;2.33;81.78
22605;BME280;11469;49.024;8.246;2023-01-27T15:36:34;101001.97;;;2.31;81.71